This is the latest recevied weather packets stored in our database for station/object W3JGB. If no packets are shown the sender has not sent any weather packets the latest 10 day(s).
| Time | Temp. | Humidity | Pressure | Rain* | Wind** | Luminosity | Snow |
|---|---|---|---|---|---|---|---|
| 1777985716 | 21.11° C | 64% | 1008.4 hPa | 0 mm | - | 311 W/m² | - |
| 1777985413 | 20.56° C | 66% | 1008.8 hPa | 0 mm | - | 266 W/m² | - |
| 1777985110 | 20° C | 69% | 1008.7 hPa | 0 mm | - | 314 W/m² | - |
| 1777984806 | 19.44° C | 73% | 1008.8 hPa | 0 mm | - | 277 W/m² | - |
| 1777984503 | 18.33° C | 74% | 1008.7 hPa | 0 mm | - | 263 W/m² | - |
| 1777984199 | 16.67° C | 85% | 1008.7 hPa | 0 mm | - | 212 W/m² | - |
| 1777983896 | 15.56° C | 88% | 1008.9 hPa | 0 mm | - | 214 W/m² | - |
| 1777983593 | 15.56° C | 90% | 1008.9 hPa | 0 mm | - | 65 W/m² | - |
| 1777983289 | 15.56° C | 88% | 1009 hPa | 0 mm | - | 46 W/m² | - |
| 1777982986 | 15.56° C | 86% | 1008.7 hPa | 0 mm | - | 42 W/m² | - |
| 1777982682 | 15.56° C | 83% | 1009 hPa | 0 mm | - | 41 W/m² | - |
| 1777982381 | 14.44° C | 89% | 1008.9 hPa | 0 mm | - | 44 W/m² | - |
| 1777982078 | 13.33° C | 90% | 1008.8 hPa | 0 mm | - | 37 W/m² | - |
| 1777981776 | 13.33° C | 93% | 1008.9 hPa | 0 mm | - | 32 W/m² | - |
| 1777981472 | 13.33° C | 94% | 1008.6 hPa | 0 mm | - | 31 W/m² | - |
| 1777981168 | 12.78° C | 94% | 1008.9 hPa | 0 mm | - | 36 W/m² | - |
| 1777980865 | 12.22° C | 95% | 1008.7 hPa | 0 mm | - | 52 W/m² | - |
| 1777980561 | 11.67° C | 95% | 1008.7 hPa | 0 mm | - | 55 W/m² | - |
| 1777980259 | 11.67° C | 95% | 1008.9 hPa | 0 mm | - | 31 W/m² | - |
| 1777979955 | 11.11° C | 97% | 1008.8 hPa | 0 mm | - | 23 W/m² | - |
| 1777979650 | 10.56° C | 97% | 1008.2 hPa | 0 mm | - | 14 W/m² | - |
| 1777979346 | 10.56° C | 98% | 1008.6 hPa | 0 mm | - | 11 W/m² | - |
| 1777979043 | 10° C | 98% | 1008.4 hPa | 0 mm | - | 17 W/m² | - |
| 1777978740 | 10° C | 98% | 1008.4 hPa | 0 mm | - | 20 W/m² | - |
| 1777978436 | 10° C | 98% | 1008.5 hPa | 0 mm | - | 13 W/m² | - |
* Rain latest hour (hover to see other rain measurements)
** Current wind speed in m/s (hover to see current wind gust speed)